M I D A S
Marine Information and Data Acquisition System
Tripno 1538 of the Zeeleeuw from 2008-08-18 07:18:26 to 2008-08-18 15:57:06
Back to CruiseResearch ActivitiesStationsMapUnderway DataData graphs

EquipmentUnitsComment
TimeDGPSUTC
LatitudeDGPSDM.mWGS84
LongitudeDGPSDM.mWGS84
HeadingGyrodeg 
SOGDGPSknotsSpeed over ground
COGDGPSdegCourse over ground
DepthEcho soundermeters200 kHz
Missing or incorrect values are displayed as -999
Navigation data collected by the RV Zeeleeuw from 2008-08-18 07:16:45 to 2008-08-18 15:57:41
                                                                                    Next 1000 lines
Time Latitude Longitude Heading SOG COG Depth
2008-08-18 07:16:55 51°13.624 2°56.046 112.3 0.8 299 7.2
2008-08-18 07:17:00 51°13.625 2°56.044 112.1 1.2 300 5.4
2008-08-18 07:17:05 51°13.626 2°56.041 112 1.6 300 7
2008-08-18 07:17:10 51°13.627 2°56.037 111.8 1.9 298 6.8
2008-08-18 07:17:15 51°13.629 2°56.033 111.5 2.2 298 7.2
2008-08-18 07:17:21 51°13.631 2°56.028 111.3 2.4 297 -999
2008-08-18 07:17:25 51°13.632 2°56.023 111 2.6 296 -999
2008-08-18 07:17:30 51°13.633 2°56.018 110.6 2.8 295 -999
2008-08-18 07:17:36 51°13.635 2°56.011 110.6 2.9 295 -999
2008-08-18 07:17:41 51°13.637 2°56.005 110.6 3 294 -999
2008-08-18 07:17:46 51°13.639 2°55.998 110.4 3.2 295 -999
2008-08-18 07:17:50 51°13.641 2°55.993 110.3 3.3 294 -999
2008-08-18 07:17:55 51°13.643 2°55.986 110.2 3.4 293 -999
2008-08-18 07:18:01 51°13.645 2°55.978 109.9 3.5 292 -999
2008-08-18 07:18:06 51°13.646 2°55.97 109.6 3.6 291 -999
2008-08-18 07:18:10 51°13.648 2°55.964 109.4 3.7 291 -999
2008-08-18 07:18:15 51°13.65 2°55.956 109.1 3.8 290 -999
2008-08-18 07:18:21 51°13.652 2°55.947 109.1 3.9 289 -999
2008-08-18 07:18:26 51°13.653 2°55.939 109.2 3.9 289 -999
2008-08-18 07:18:30 51°13.655 2°55.932 109.9 4 290 -999
2008-08-18 07:18:35 51°13.657 2°55.924 110.6 4 290 -999
2008-08-18 07:18:40 51°13.659 2°55.915 112.4 4.1 291 -999
2008-08-18 07:18:46 51°13.661 2°55.905 113.9 4.2 292 -999
2008-08-18 07:18:51 51°13.664 2°55.896 115.4 4.3 294 -999
2008-08-18 07:18:56 51°13.667 2°55.887 116.6 4.4 295 -999
2008-08-18 07:19:00 51°13.669 2°55.88 118.4 4.5 297 -999
2008-08-18 07:19:05 51°13.672 2°55.871 119.9 4.5 299 -999
2008-08-18 07:19:11 51°13.676 2°55.861 121.6 4.6 301 -999
2008-08-18 07:19:16 51°13.679 2°55.852 122.7 4.6 301 -999
2008-08-18 07:19:21 51°13.683 2°55.844 123.9 4.6 303 -999
2008-08-18 07:19:25 51°13.686 2°55.837 124.7 4.6 304 -999
2008-08-18 07:19:31 51°13.69 2°55.827 125.7 4.6 306 -999
2008-08-18 07:19:36 51°13.694 2°55.819 126.4 4.7 307 -999
2008-08-18 07:19:41 51°13.699 2°55.811 127.3 4.7 308 -999
2008-08-18 07:19:46 51°13.703 2°55.803 128.4 4.8 309 -999
2008-08-18 07:19:50 51°13.707 2°55.796 129.6 4.9 310 -999
2008-08-18 07:19:56 51°13.712 2°55.786 130.8 4.9 311 -999
2008-08-18 07:20:01 51°13.717 2°55.778 131.8 5 312 -999
2008-08-18 07:20:06 51°13.721 2°55.77 132.8 5 312 -999
2008-08-18 07:20:10 51°13.725 2°55.763 133.7 5 313 -999
2008-08-18 07:20:15 51°13.73 2°55.755 134.4 5 314 -999
2008-08-18 07:20:21 51°13.736 2°55.746 135.4 5 315 -999
2008-08-18 07:20:26 51°13.741 2°55.738 136.5 5.1 317 -999
2008-08-18 07:20:30 51°13.745 2°55.732 138.1 5.1 318 -999
2008-08-18 07:20:35 51°13.75 2°55.725 139.2 5.1 320 -999
2008-08-18 07:20:41 51°13.757 2°55.716 140 5.1 320 -999
2008-08-18 07:20:46 51°13.762 2°55.709 140.4 5.2 321 -999
2008-08-18 07:20:51 51°13.768 2°55.701 140.7 5.2 320 -999
2008-08-18 07:20:55 51°13.772 2°55.696 141.4 5.2 322 -999
2008-08-18 07:21:00 51°13.778 2°55.689 142.1 5.1 322 -999
2008-08-18 07:21:06 51°13.785 2°55.681 143.6 5.2 323 -999
2008-08-18 07:21:10 51°13.79 2°55.675 145.2 5.2 324 -999
2008-08-18 07:21:15 51°13.796 2°55.669 146.5 5.2 325 -999
2008-08-18 07:21:20 51°13.802 2°55.662 148.2 5.2 326 -999
2008-08-18 07:21:25 51°13.808 2°55.656 149.7 5.1 328 -999
2008-08-18 07:21:31 51°13.815 2°55.65 152.2 5 330 -999
2008-08-18 07:21:36 51°13.821 2°55.645 154.5 4.9 333 -999
2008-08-18 07:21:41 51°13.827 2°55.64 158.1 4.8 336 -999
2008-08-18 07:21:45 51°13.832 2°55.638 162.5 4.8 340 -999
2008-08-18 07:21:51 51°13.839 2°55.634 166.1 4.7 343 -999
2008-08-18 07:21:56 51°13.845 2°55.631 169 4.6 347 -999
2008-08-18 07:22:01 51°13.851 2°55.63 172.7 4.6 350 -999
2008-08-18 07:22:06 51°13.857 2°55.629 177.5 4.5 355 -999
2008-08-18 07:22:10 51°13.862 2°55.628 180.6 4.5 358 -999
2008-08-18 07:22:16 51°13.87 2°55.629 184.6 4.4 2 -999
2008-08-18 07:22:21 51°13.876 2°55.63 188.3 4.4 5 -999
2008-08-18 07:22:26 51°13.882 2°55.632 192.6 4.4 9 -999
2008-08-18 07:22:30 51°13.886 2°55.633 195.5 4.3 12 -999
2008-08-18 07:22:35 51°13.892 2°55.636 199.2 4.3 16 -999
2008-08-18 07:22:41 51°13.899 2°55.64 203.1 4.3 20 -999
2008-08-18 07:22:46 51°13.904 2°55.643 206.9 4.1 23 -999
2008-08-18 07:22:50 51°13.908 2°55.646 211.3 3.8 24 -999
2008-08-18 07:22:55 51°13.912 2°55.65 213.4 3.6 27 -999
2008-08-18 07:23:01 51°13.917 2°55.654 215.7 3.4 28 -999
2008-08-18 07:23:06 51°13.921 2°55.658 218.1 3.1 29 -999
2008-08-18 07:23:11 51°13.924 2°55.661 219.8 2.6 32 -999
2008-08-18 07:23:15 51°13.926 2°55.662 222.8 2 30 9
2008-08-18 07:23:20 51°13.928 2°55.663 224.8 1.2 21 8.9
2008-08-18 07:23:25 51°13.929 2°55.663 227.7 0.6 336 8.9
2008-08-18 07:23:30 51°13.929 2°55.661 232.5 1 278 9
2008-08-18 07:23:34 51°13.929 2°55.658 239 1.6 269 9
2008-08-18 07:23:39 51°13.929 2°55.654 247.3 2.2 271 8.9
2008-08-18 07:23:44 51°13.929 2°55.648 256.5 2.5 277 8.9
2008-08-18 07:23:49 51°13.93 2°55.642 266.1 2.9 284 8.9
2008-08-18 07:23:54 51°13.932 2°55.635 274.3 3.4 288 8.9
2008-08-18 07:23:58 51°13.933 2°55.629 282.2 3.8 294 9.1
2008-08-18 07:24:03 51°13.936 2°55.621 291 4.3 302 9.1
2008-08-18 07:24:08 51°13.94 2°55.613 299.2 4.7 305 9.2
2008-08-18 07:24:13 51°13.944 2°55.604 304.7 5.2 310 9
2008-08-18 07:24:18 51°13.95 2°55.595 308.9 5.7 312 9.2
2008-08-18 07:24:22 51°13.954 2°55.587 311.9 6 314 9.4
2008-08-18 07:24:27 51°13.961 2°55.578 314.4 6.3 317 9.4
2008-08-18 07:24:32 51°13.967 2°55.568 316.6 6.6 318 9.3
2008-08-18 07:24:37 51°13.975 2°55.558 319.2 6.9 321 9.5
2008-08-18 07:24:42 51°13.982 2°55.549 322 7.1 323 9.5
2008-08-18 07:24:47 51°13.991 2°55.54 323.9 7.3 324 9.5
2008-08-18 07:24:52 51°13.999 2°55.53 324 7.5 323 9.4
2008-08-18 07:24:57 51°14.008 2°55.52 324.8 7.7 327 9.5
2008-08-18 07:25:02 51°14.017 2°55.511 326.5 7.8 327 9.4
2008-08-18 07:25:07 51°14.026 2°55.502 327 7.9 327 9.5
2008-08-18 07:25:12 51°14.035 2°55.492 327.2 8 327 9.3
2008-08-18 07:25:17 51°14.045 2°55.482 327.4 8.1 328 9.5
2008-08-18 07:25:22 51°14.054 2°55.473 328.5 8.1 328 9.6
2008-08-18 07:25:27 51°14.064 2°55.464 328.8 8.2 328 9.5
2008-08-18 07:25:31 51°14.072 2°55.456 329.2 8.2 329 9.6
2008-08-18 07:25:37 51°14.083 2°55.445 329.6 8.3 329 9.5
2008-08-18 07:25:42 51°14.093 2°55.436 330.1 8.3 330 9.5
2008-08-18 07:25:47 51°14.103 2°55.427 330.6 8.3 330 9.5
2008-08-18 07:25:52 51°14.113 2°55.418 331.1 8.3 330 9.4
2008-08-18 07:25:57 51°14.123 2°55.409 331 8.3 329 9.5
2008-08-18 07:26:02 51°14.133 2°55.399 330.4 8.3 329 9.5
2008-08-18 07:26:07 51°14.142 2°55.39 330.2 8.3 329 9.4
2008-08-18 07:26:12 51°14.152 2°55.38 330.1 8.3 329 9.4
2008-08-18 07:26:17 51°14.162 2°55.371 329.7 8.3 328 9.4
2008-08-18 07:26:22 51°14.172 2°55.361 329.7 8.3 328 9.2
2008-08-18 07:26:27 51°14.181 2°55.351 329.3 8.3 327 9
2008-08-18 07:26:32 51°14.191 2°55.341 327.6 8.3 325 9.2
2008-08-18 07:26:37 51°14.2 2°55.33 326.1 8.3 324 9.3
2008-08-18 07:26:42 51°14.21 2°55.319 325.2 8.3 323 9.1
2008-08-18 07:26:47 51°14.219 2°55.308 323.7 8.3 321 8.8
2008-08-18 07:26:52 51°14.227 2°55.295 321.9 8.4 319 9.3
2008-08-18 07:26:57 51°14.236 2°55.283 320.1 8.4 318 9
2008-08-18 07:27:02 51°14.245 2°55.27 318.5 8.4 316 9.1
2008-08-18 07:27:07 51°14.253 2°55.257 317.1 8.4 316 9
2008-08-18 07:27:11 51°14.26 2°55.247 316.5 8.5 315 9.2
2008-08-18 07:27:17 51°14.27 2°55.23 315.7 8.5 314 8.9
2008-08-18 07:27:22 51°14.278 2°55.217 314.9 8.5 313 8.9
2008-08-18 07:27:27 51°14.286 2°55.203 314.1 8.5 313 8.8
2008-08-18 07:27:31 51°14.292 2°55.192 313.3 8.5 312 8.7
2008-08-18 07:27:37 51°14.302 2°55.175 312.2 8.5 311 8.8
2008-08-18 07:27:42 51°14.309 2°55.161 311.6 8.5 311 9
2008-08-18 07:27:47 51°14.317 2°55.146 311.2 8.5 310 9.4
2008-08-18 07:27:52 51°14.325 2°55.132 310.3 8.5 309 9.3
2008-08-18 07:27:57 51°14.332 2°55.117 309.3 8.5 308 9.5
2008-08-18 07:28:02 51°14.339 2°55.102 308.2 8.5 307 9.5
2008-08-18 07:28:07 51°14.346 2°55.087 307.4 8.5 306 9.6
2008-08-18 07:28:12 51°14.353 2°55.072 306.7 8.5 305 9.7
2008-08-18 07:28:17 51°14.359 2°55.056 305.8 8.4 303 9.7
2008-08-18 07:28:22 51°14.365 2°55.041 303.9 8.4 301 9.7
2008-08-18 07:28:27 51°14.371 2°55.024 300.6 8.3 297 9.4
2008-08-18 07:28:32 51°14.376 2°55.008 297 8.2 294 9.2
2008-08-18 07:28:37 51°14.379 2°54.991 293.8 8.2 290 9.1
2008-08-18 07:28:42 51°14.383 2°54.973 290.5 8.3 287 9
2008-08-18 07:28:47 51°14.386 2°54.955 286.9 8.6 283 9
2008-08-18 07:28:52 51°14.388 2°54.935 282.9 8.9 279 8.9
2008-08-18 07:28:57 51°14.389 2°54.915 278.6 9.3 274 8.9
2008-08-18 07:29:02 51°14.389 2°54.894 275.5 9.6 273 8.8
2008-08-18 07:29:07 51°14.39 2°54.872 273.9 9.9 271 8.9
2008-08-18 07:29:12 51°14.39 2°54.85 272.7 10.1 270 8.7
2008-08-18 07:29:17 51°14.389 2°54.827 270.6 10.3 267 8.9
2008-08-18 07:29:22 51°14.388 2°54.804 267.9 10.5 265 8.9
2008-08-18 07:29:27 51°14.386 2°54.781 266.2 10.6 264 8.9
2008-08-18 07:29:32 51°14.384 2°54.757 265 10.7 263 8.9
2008-08-18 07:29:37 51°14.382 2°54.734 263.8 10.9 261 8.7
2008-08-18 07:29:42 51°14.379 2°54.71 261.1 11 258 9.1
2008-08-18 07:29:47 51°14.376 2°54.686 259.8 11 259 9.6
2008-08-18 07:29:52 51°14.373 2°54.662 259.1 11.1 257 9.1
2008-08-18 07:29:57 51°14.369 2°54.638 258.1 11.1 255 9.2
2008-08-18 07:30:02 51°14.364 2°54.615 255.4 11.2 252 8.9
2008-08-18 07:30:07 51°14.359 2°54.591 253.2 11.2 251 8.2
2008-08-18 07:30:12 51°14.354 2°54.568 251.8 11.1 250 7.7
2008-08-18 07:30:17 51°14.348 2°54.546 250 11.2 248 7.6
2008-08-18 07:30:22 51°14.343 2°54.522 248.9 11.2 249 7.8
2008-08-18 07:30:27 51°14.337 2°54.499 249.4 11.3 249 7.7
2008-08-18 07:30:32 51°14.331 2°54.476 249.7 11.3 249 7.9
2008-08-18 07:30:37 51°14.326 2°54.453 250.3 11.4 249 7.8
2008-08-18 07:30:42 51°14.321 2°54.429 250.3 11.4 249 7.8
2008-08-18 07:30:47 51°14.316 2°54.405 250.3 11.4 249 7.8
2008-08-18 07:30:52 51°14.31 2°54.381 250.4 11.5 249 7.8
2008-08-18 07:30:57 51°14.304 2°54.357 250.4 11.5 249 7.8
2008-08-18 07:31:02 51°14.299 2°54.334 250.2 11.5 249 7.8
2008-08-18 07:31:07 51°14.293 2°54.31 250 11.5 249 7.7
2008-08-18 07:31:12 51°14.287 2°54.286 249.8 11.5 249 7.7
2008-08-18 07:31:17 51°14.282 2°54.263 250 11.5 249 7.7
2008-08-18 07:31:22 51°14.276 2°54.239 250.2 11.5 249 7.7
2008-08-18 07:31:27 51°14.27 2°54.215 250.2 11.5 249 7.7
2008-08-18 07:31:31 51°14.265 2°54.196 250.1 11.5 249 7.6
2008-08-18 07:31:37 51°14.258 2°54.168 249.4 11.6 248 7.5
2008-08-18 07:31:42 51°14.252 2°54.144 248.6 11.6 247 7.4
2008-08-18 07:31:47 51°14.246 2°54.121 248 11.5 247 7.3
2008-08-18 07:31:52 51°14.239 2°54.097 247.6 11.5 247 7.8
2008-08-18 07:31:57 51°14.233 2°54.074 247.4 11.5 247 7.2
2008-08-18 07:32:02 51°14.226 2°54.051 247.2 11.5 246 7.6
2008-08-18 07:32:07 51°14.22 2°54.027 246.8 11.6 246 7.4
2008-08-18 07:32:12 51°14.213 2°54.004 246.7 11.6 246 7.4
2008-08-18 07:32:17 51°14.207 2°53.981 246.5 11.6 246 5.5
2008-08-18 07:32:22 51°14.2 2°53.958 246.6 11.6 246 7.5
2008-08-18 07:32:27 51°14.194 2°53.934 246.8 11.6 247 7.5
2008-08-18 07:32:31 51°14.189 2°53.915 247.1 11.7 246 7.6
2008-08-18 07:32:37 51°14.181 2°53.887 247 11.7 246 7.7
2008-08-18 07:32:42 51°14.175 2°53.863 247 11.7 246 7.7
2008-08-18 07:32:47 51°14.168 2°53.84 246.6 11.7 246 7.6
2008-08-18 07:32:52 51°14.161 2°53.816 246.4 11.7 246 7.8
2008-08-18 07:32:57 51°14.154 2°53.793 246.4 11.7 246 7.7
2008-08-18 07:33:02 51°14.148 2°53.769 246.3 11.7 245 7.7
2008-08-18 07:33:07 51°14.141 2°53.746 245.5 11.8 244 7.7
2008-08-18 07:33:12 51°14.134 2°53.722 245.2 11.7 245 7.8
2008-08-18 07:33:17 51°14.127 2°53.699 244.8 11.7 244 7.8
2008-08-18 07:33:22 51°14.12 2°53.675 244.5 11.7 244 7.7
2008-08-18 07:33:27 51°14.113 2°53.652 244.5 11.7 244 7.7
2008-08-18 07:33:31 51°14.107 2°53.633 244.4 11.7 244 7.8
2008-08-18 07:33:37 51°14.098 2°53.605 244.2 11.8 244 7.9
2008-08-18 07:33:42 51°14.091 2°53.582 244.3 11.8 244 7.9
2008-08-18 07:33:47 51°14.084 2°53.559 244.4 11.8 244 7.9
2008-08-18 07:33:52 51°14.077 2°53.535 244.7 11.8 244 7.9
2008-08-18 07:33:57 51°14.07 2°53.511 245.1 11.8 245 7.9
2008-08-18 07:34:02 51°14.063 2°53.488 245.2 11.8 245 8
2008-08-18 07:34:07 51°14.056 2°53.464 245.8 11.8 246 8.1
2008-08-18 07:34:12 51°14.05 2°53.44 246 11.8 246 8
2008-08-18 07:34:17 51°14.043 2°53.417 246.3 11.8 246 8
2008-08-18 07:34:22 51°14.036 2°53.393 246.2 11.8 246 8.1
2008-08-18 07:34:27 51°14.029 2°53.369 246.5 11.8 246 8.2
2008-08-18 07:34:32 51°14.023 2°53.345 246.8 11.8 246 8.1
2008-08-18 07:34:37 51°14.016 2°53.321 246.9 11.8 246 8.2
2008-08-18 07:34:42 51°14.01 2°53.297 246.9 11.8 246 8.2
2008-08-18 07:34:47 51°14.003 2°53.274 246.7 11.9 246 8.2
2008-08-18 07:34:52 51°13.996 2°53.25 246.5 11.9 246 8.4
2008-08-18 07:34:57 51°13.989 2°53.226 246.2 11.9 246 8.4
2008-08-18 07:35:02 51°13.982 2°53.202 246 11.9 245 8.4
2008-08-18 07:35:07 51°13.975 2°53.179 245.7 11.9 245 8.4
2008-08-18 07:35:12 51°13.968 2°53.155 245.5 11.9 245 8.5
2008-08-18 07:35:17 51°13.961 2°53.131 245.3 11.9 245 8.6
2008-08-18 07:35:22 51°13.954 2°53.107 245.4 11.9 245 8.4
2008-08-18 07:35:27 51°13.947 2°53.083 245.5 11.9 246 8.4
2008-08-18 07:35:32 51°13.941 2°53.06 245.8 11.9 245 8.5
2008-08-18 07:35:37 51°13.934 2°53.036 245.9 11.9 246 8.5
2008-08-18 07:35:42 51°13.927 2°53.012 246 11.9 245 8.6
2008-08-18 07:35:47 51°13.92 2°52.988 245.7 11.9 245 8.5
2008-08-18 07:35:52 51°13.913 2°52.964 245.3 11.9 244 8.7
2008-08-18 07:35:57 51°13.905 2°52.94 245 11.9 245 8.7
2008-08-18 07:36:02 51°13.898 2°52.917 244.8 11.9 244 8.7
2008-08-18 07:36:07 51°13.891 2°52.893 244.8 11.9 244 8.7
2008-08-18 07:36:12 51°13.884 2°52.869 244.7 11.9 244 8.7
2008-08-18 07:36:17 51°13.877 2°52.845 244.7 11.9 245 8.8
2008-08-18 07:36:22 51°13.87 2°52.821 244.9 11.9 245 8.7
2008-08-18 07:36:27 51°13.863 2°52.798 245.4 11.9 245 8.8
2008-08-18 07:36:31 51°13.857 2°52.779 245.5 11.9 245 8.8
2008-08-18 07:36:37 51°13.849 2°52.75 245.2 11.9 245 8.7
2008-08-18 07:36:42 51°13.842 2°52.726 245.1 11.9 245 8.8
2008-08-18 07:36:47 51°13.835 2°52.702 245.4 11.9 245 8.8
2008-08-18 07:36:52 51°13.828 2°52.678 245.6 11.9 245 8.8
2008-08-18 07:36:57 51°13.821 2°52.655 245.1 11.9 244 8.9
2008-08-18 07:37:02 51°13.813 2°52.631 244.7 11.9 244 8.9
2008-08-18 07:37:07 51°13.806 2°52.607 244.8 12 245 8.9
2008-08-18 07:37:11 51°13.801 2°52.588 245.2 11.9 245 8.9
2008-08-18 07:37:17 51°13.792 2°52.559 245.3 12 245 8.9
2008-08-18 07:37:22 51°13.785 2°52.535 245.4 11.9 245 9
2008-08-18 07:37:27 51°13.778 2°52.512 245.5 11.9 244 8.9
2008-08-18 07:37:32 51°13.771 2°52.488 244.9 12 244 8.9
2008-08-18 07:37:37 51°13.764 2°52.464 244.9 12 244 9
2008-08-18 07:37:42 51°13.757 2°52.44 244.9 12 244 9.1
2008-08-18 07:37:47 51°13.749 2°52.416 245 12 244 9.1
2008-08-18 07:37:51 51°13.744 2°52.397 244.9 12 244 9.1
2008-08-18 07:37:57 51°13.735 2°52.369 243.8 12 243 9.2
2008-08-18 07:38:02 51°13.727 2°52.345 243.6 12 243 9.1
2008-08-18 07:38:07 51°13.719 2°52.321 243.4 12 244 9.1
2008-08-18 07:38:12 51°13.712 2°52.298 243.8 12 244 9.1
2008-08-18 07:38:17 51°13.705 2°52.274 244.7 12 244 9.1
2008-08-18 07:38:22 51°13.698 2°52.25 244.9 12 245 9.1
2008-08-18 07:38:27 51°13.691 2°52.226 245.5 12 246 9.1
2008-08-18 07:38:31 51°13.685 2°52.206 246 12 245 9.1
2008-08-18 07:38:37 51°13.677 2°52.177 246.3 12 246 9.2
2008-08-18 07:38:42 51°13.67 2°52.154 246.6 12 246 9.1
2008-08-18 07:38:47 51°13.663 2°52.13 246.5 12 246 9.2
2008-08-18 07:38:52 51°13.656 2°52.106 246.2 12 245 9.2
2008-08-18 07:38:57 51°13.649 2°52.081 246.4 12 246 9.2
2008-08-18 07:39:02 51°13.642 2°52.057 246.6 12 246 9.2
2008-08-18 07:39:07 51°13.635 2°52.033 246.6 11.8 245 9.2
2008-08-18 07:39:12 51°13.629 2°52.01 246.3 11.7 245 9.3
2008-08-18 07:39:17 51°13.622 2°51.987 246.3 11.5 246 9.3
2008-08-18 07:39:22 51°13.616 2°51.963 246.3 11.4 245 9.3
2008-08-18 07:39:27 51°13.609 2°51.941 245.7 11.3 244 9.4
2008-08-18 07:39:31 51°13.604 2°51.923 245 11.2 244 9.3
2008-08-18 07:39:37 51°13.596 2°51.896 244.9 11.2 245 9.4
2008-08-18 07:39:42 51°13.589 2°51.874 245.4 11.1 245 9.3
2008-08-18 07:39:47 51°13.583 2°51.852 245.9 11 245 9.3
2008-08-18 07:39:52 51°13.577 2°51.83 246 10.7 245 9.4
2008-08-18 07:39:57 51°13.571 2°51.81 246 10.1 245 9.4
2008-08-18 07:40:02 51°13.565 2°51.79 246 9.6 245 9.5
2008-08-18 07:40:07 51°13.56 2°51.771 245.9 9.3 245 9.5
2008-08-18 07:40:12 51°13.554 2°51.754 245.4 8.8 244 9.5
2008-08-18 07:40:17 51°13.549 2°51.737 244.8 8.2 244 9.6
2008-08-18 07:40:22 51°13.544 2°51.722 243.9 7.7 243 9.6
2008-08-18 07:40:27 51°13.54 2°51.708 242.6 7.3 243 9.6
2008-08-18 07:40:31 51°13.536 2°51.697 241.2 6.9 241 9.6
2008-08-18 07:40:37 51°13.531 2°51.681 240 6.6 241 9.6
2008-08-18 07:40:42 51°13.526 2°51.669 238.9 6.3 240 9.6
2008-08-18 07:40:47 51°13.522 2°51.657 238.2 6 240 9.7
2008-08-18 07:40:52 51°13.518 2°51.646 237.8 5.8 239 9.7
2008-08-18 07:40:57 51°13.514 2°51.635 237.2 5.5 240 9.7
2008-08-18 07:41:02 51°13.511 2°51.625 237.1 5.4 239 9.7
2008-08-18 07:41:07 51°13.507 2°51.615 236.9 5.2 239 9.7
2008-08-18 07:41:12 51°13.503 2°51.605 236.7 5 239 9.7
2008-08-18 07:41:17 51°13.5 2°51.596 236.6 4.8 240 9.7
2008-08-18 07:41:22 51°13.496 2°51.587 236.6 4.6 240 9.7
2008-08-18 07:41:27 51°13.493 2°51.579 236.6 4.4 241 9.7
2008-08-18 07:41:32 51°13.49 2°51.571 236.6 4.3 240 9.7
2008-08-18 07:41:37 51°13.487 2°51.563 236.5 4.1 240 9.7
2008-08-18 07:41:42 51°13.484 2°51.555 236.4 4 240 9.7
2008-08-18 07:41:47 51°13.482 2°51.548 236.3 3.9 241 9.7
2008-08-18 07:41:51 51°13.479 2°51.542 236 3.7 240 9.7
2008-08-18 07:41:57 51°13.476 2°51.533 235.8 3.6 241 9.7
2008-08-18 07:42:02 51°13.474 2°51.526 235.8 3.5 241 9.7
2008-08-18 07:42:07 51°13.472 2°51.52 235.5 3.4 242 9.8
2008-08-18 07:42:12 51°13.47 2°51.513 235.5 3.4 241 9.7
2008-08-18 07:42:17 51°13.467 2°51.507 235.3 3.2 241 9.7
2008-08-18 07:42:22 51°13.465 2°51.501 235.1 3.1 241 9.7
2008-08-18 07:42:27 51°13.463 2°51.495 234.8 3.1 241 9.7
2008-08-18 07:42:32 51°13.461 2°51.489 234.3 3 241 9.7
2008-08-18 07:42:37 51°13.459 2°51.483 234.1 2.9 242 9.8
2008-08-18 07:42:42 51°13.457 2°51.478 233.8 2.8 241 9.8
2008-08-18 07:42:47 51°13.455 2°51.473 233.6 2.7 242 9.7
2008-08-18 07:42:52 51°13.454 2°51.468 233.5 2.6 243 9.7
2008-08-18 07:42:57 51°13.452 2°51.463 233.3 2.4 243 9.7
2008-08-18 07:43:02 51°13.451 2°51.458 233 2.3 244 9.7
2008-08-18 07:43:07 51°13.45 2°51.453 232.7 2.2 245 9.8
2008-08-18 07:43:12 51°13.449 2°51.449 232.5 2 245 9.8
2008-08-18 07:43:17 51°13.448 2°51.446 232.4 1.7 248 9.7
2008-08-18 07:43:22 51°13.447 2°51.443 232.3 1.5 252 9.8
2008-08-18 07:43:27 51°13.447 2°51.44 232.6 1.2 255 9.8
2008-08-18 07:43:32 51°13.446 2°51.438 233.2 1.1 261 9.8
2008-08-18 07:43:37 51°13.446 2°51.436 234.3 0.8 269 9.8
2008-08-18 07:43:42 51°13.447 2°51.435 235.7 0.6 280 9.8
2008-08-18 07:43:47 51°13.447 2°51.433 237.4 0.5 284 9.8
2008-08-18 07:43:52 51°13.447 2°51.432 239.4 0.5 279 9.8
2008-08-18 07:43:57 51°13.447 2°51.431 241.9 0.5 275 9.9
2008-08-18 07:44:02 51°13.447 2°51.43 244.5 0.6 274 9.8
2008-08-18 07:44:07 51°13.447 2°51.429 246.9 0.5 267 9.8
2008-08-18 07:44:11 51°13.447 2°51.428 249.2 0.6 267 9.8
2008-08-18 07:44:17 51°13.447 2°51.426 251.5 0.6 260 9.8
2008-08-18 07:44:22 51°13.447 2°51.425 253.3 0.6 263 9.8
2008-08-18 07:44:27 51°13.447 2°51.424 255.1 0.6 256 9.9
2008-08-18 07:44:31 51°13.447 2°51.423 256.9 0.6 257 9.8
2008-08-18 07:44:37 51°13.446 2°51.421 258.5 0.6 254 9.8
2008-08-18 07:44:42 51°13.446 2°51.42 260 0.6 253 9.8
2008-08-18 07:44:47 51°13.446 2°51.418 261.6 0.7 252 9.8
2008-08-18 07:44:52 51°13.446 2°51.417 262.9 0.7 251 9.8
2008-08-18 07:44:57 51°13.446 2°51.416 264.3 0.7 251 9.8
2008-08-18 07:45:02 51°13.445 2°51.414 265.7 0.7 251 9.8
2008-08-18 07:45:07 51°13.445 2°51.413 267 0.7 252 9.8
2008-08-18 07:45:12 51°13.445 2°51.411 268.2 0.7 251 9.8
2008-08-18 07:45:17 51°13.444 2°51.41 269.4 0.7 248 9.9
2008-08-18 07:45:22 51°13.444 2°51.408 270.6 0.7 248 9.8
2008-08-18 07:45:27 51°13.443 2°51.407 271.6 0.7 246 9.8
2008-08-18 07:45:32 51°13.443 2°51.405 272.6 0.7 248 9.9
2008-08-18 07:45:37 51°13.443 2°51.404 273.5 0.7 248 9.9
2008-08-18 07:45:42 51°13.442 2°51.402 274.6 0.8 246 9.8
2008-08-18 07:45:47 51°13.442 2°51.401 275.5 0.8 247 9.8
2008-08-18 07:45:52 51°13.441 2°51.399 276.6 0.8 246 9.8
2008-08-18 07:45:57 51°13.441 2°51.398 277.6 0.8 248 9.8
2008-08-18 07:46:02 51°13.44 2°51.396 278.6 0.8 248 9.8
2008-08-18 07:46:07 51°13.44 2°51.395 279.6 0.8 248 9.8
2008-08-18 07:46:12 51°13.44 2°51.393 280.5 0.8 248 9.9
2008-08-18 07:46:17 51°13.439 2°51.391 281.5 0.8 248 9.9
2008-08-18 07:46:22 51°13.439 2°51.39 282.3 0.8 248 9.9
2008-08-18 07:46:27 51°13.439 2°51.388 283.2 0.8 248 9.9
2008-08-18 07:46:32 51°13.438 2°51.387 284.3 0.8 248 9.9
2008-08-18 07:46:37 51°13.438 2°51.385 285.3 0.8 247 9.9
2008-08-18 07:46:42 51°13.438 2°51.383 286.1 0.8 246 9.9
2008-08-18 07:46:47 51°13.437 2°51.382 287.2 0.8 245 9.9
2008-08-18 07:46:52 51°13.437 2°51.38 288.4 0.8 246 9.9
2008-08-18 07:46:57 51°13.436 2°51.379 289.4 0.8 244 9.8
2008-08-18 07:47:02 51°13.436 2°51.377 290.2 0.8 245 9.8
2008-08-18 07:47:07 51°13.436 2°51.375 291.3 0.8 244 9.9
2008-08-18 07:47:12 51°13.435 2°51.374 292.3 0.8 244 9.9
2008-08-18 07:47:17 51°13.436 2°51.372 293.3 0.8 244 9.8
2008-08-18 07:47:22 51°13.435 2°51.371 294.4 0.8 245 9.9
2008-08-18 07:47:27 51°13.435 2°51.369 295.3 0.8 244 9.9
2008-08-18 07:47:31 51°13.435 2°51.368 296.2 0.8 246 9.9
2008-08-18 07:47:37 51°13.434 2°51.366 297.2 0.9 246 9.9
2008-08-18 07:47:42 51°13.434 2°51.364 297.9 0.9 245 9.9
2008-08-18 07:47:47 51°13.433 2°51.363 298.7 0.8 245 9.9
2008-08-18 07:47:51 51°13.433 2°51.361 299.5 0.8 246 9.8
2008-08-18 07:47:57 51°13.432 2°51.359 300.3 0.8 246 9.9
2008-08-18 07:48:02 51°13.431 2°51.357 300.9 0.9 244 9.9
2008-08-18 07:48:07 51°13.431 2°51.356 301.6 0.8 246 9.9
2008-08-18 07:48:11 51°13.431 2°51.354 302.4 0.8 245 9.9
2008-08-18 07:48:17 51°13.43 2°51.353 303 0.8 247 9.9
2008-08-18 07:48:22 51°13.43 2°51.351 303.8 0.9 245 9.9
2008-08-18 07:48:27 51°13.429 2°51.349 304.4 0.8 246 9.9
2008-08-18 07:48:31 51°13.429 2°51.348 305.2 0.9 246 9.9
2008-08-18 07:48:37 51°13.428 2°51.346 305.8 0.9 246 9.9
2008-08-18 07:48:42 51°13.428 2°51.344 306.5 0.9 246 9.9
2008-08-18 07:48:47 51°13.427 2°51.342 307.3 0.9 245 9.9
2008-08-18 07:48:51 51°13.427 2°51.341 307.9 0.9 247 9.9
2008-08-18 07:48:57 51°13.426 2°51.339 308.6 0.9 245 9.9
2008-08-18 07:49:02 51°13.425 2°51.337 309.1 0.9 246 9.9
2008-08-18 07:49:07 51°13.425 2°51.335 309.8 0.9 244 9.9
2008-08-18 07:49:11 51°13.425 2°51.334 310.5 0.9 246 9.9
2008-08-18 07:49:17 51°13.424 2°51.332 311.2 0.9 244 9.9
2008-08-18 07:49:22 51°13.423 2°51.33 311.8 0.8 246 9.9
2008-08-18 07:49:27 51°13.423 2°51.328 312.4 0.9 245 9.9
2008-08-18 07:49:32 51°13.422 2°51.326 313 0.9 246 9.9
2008-08-18 07:49:37 51°13.422 2°51.325 313.5 0.9 247 9.9
2008-08-18 07:49:42 51°13.422 2°51.323 314.2 0.8 248 9.9
2008-08-18 07:49:47 51°13.421 2°51.321 314.6 0.9 246 9.9
2008-08-18 07:49:51 51°13.421 2°51.32 315 0.8 248 9.9
2008-08-18 07:49:57 51°13.42 2°51.318 315.5 0.9 247 9.9
2008-08-18 07:50:02 51°13.42 2°51.316 315.6 0.8 248 9.9
2008-08-18 07:50:07 51°13.419 2°51.314 316 0.9 248 9.9
2008-08-18 07:50:12 51°13.419 2°51.312 316.2 0.8 249 10
2008-08-18 07:50:17 51°13.418 2°51.311 316.4 0.9 249 10
2008-08-18 07:50:22 51°13.418 2°51.309 316.4 0.9 249 9.9
2008-08-18 07:50:27 51°13.417 2°51.307 316.6 0.9 252 9.9
2008-08-18 07:50:31 51°13.417 2°51.306 316.6 0.9 251 10
2008-08-18 07:50:37 51°13.417 2°51.303 316.5 0.9 252 10
2008-08-18 07:50:42 51°13.416 2°51.302 316.4 0.9 252 10
2008-08-18 07:50:47 51°13.416 2°51.3 316.1 0.9 252 9.9
2008-08-18 07:50:51 51°13.416 2°51.298 315.8 0.9 252 9.9
2008-08-18 07:50:57 51°13.415 2°51.296 315.6 0.9 252 9.9
2008-08-18 07:51:02 51°13.415 2°51.294 315.2 0.9 253 9.9
2008-08-18 07:51:07 51°13.414 2°51.293 315.1 0.9 252 10
2008-08-18 07:51:12 51°13.414 2°51.291 314.9 0.9 251 9.9
2008-08-18 07:51:17 51°13.414 2°51.289 314.8 0.8 251 10
2008-08-18 07:51:22 51°13.413 2°51.287 314.6 0.8 251 9.9
2008-08-18 07:51:27 51°13.413 2°51.285 314.3 0.8 252 9.9
2008-08-18 07:51:31 51°13.413 2°51.284 314.1 0.9 257 9.9
2008-08-18 07:51:37 51°13.413 2°51.281 314.1 0.9 265 9.9
2008-08-18 07:51:42 51°13.413 2°51.279 313.7 1.1 268 10
2008-08-18 07:51:47 51°13.413 2°51.276 312.9 1.1 272 10
2008-08-18 07:51:51 51°13.413 2°51.274 311.8 1.3 273 10
2008-08-18 07:51:57 51°13.413 2°51.271 310.2 1.4 276 10
2008-08-18 07:52:02 51°13.413 2°51.268 308.4 1.5 275 10
2008-08-18 07:52:07 51°13.413 2°51.264 306.1 1.8 277 10
2008-08-18 07:52:11 51°13.414 2°51.26 303.1 2.4 280 10
2008-08-18 07:52:17 51°13.414 2°51.252 297.8 3 276 10
2008-08-18 07:52:22 51°13.414 2°51.245 291 3.5 272 10
2008-08-18 07:52:27 51°13.414 2°51.236 283.5 3.9 267 10
2008-08-18 07:52:31 51°13.414 2°51.229 277.2 4.2 262 10
2008-08-18 07:52:37 51°13.412 2°51.217 267.9 4.5 256 10
2008-08-18 07:52:42 51°13.41 2°51.207 260.3 4.8 250 10
2008-08-18 07:52:47 51°13.407 2°51.197 254.1 5 245 10
2008-08-18 07:52:52 51°13.404 2°51.187 246.4 5.2 242 10
2008-08-18 07:52:57 51°13.399 2°51.177 239 5.6 236 10
2008-08-18 07:53:02 51°13.395 2°51.166 234.3 5.9 237 10
2008-08-18 07:53:07 51°13.39 2°51.155 232.7 6.2 234 10
2008-08-18 07:53:12 51°13.385 2°51.144 232.2 6.4 235 10
2008-08-18 07:53:17 51°13.379 2°51.131 232.1 6.7 235 10
2008-08-18 07:53:22 51°13.374 2°51.119 232.2 6.9 235 10
2008-08-18 07:53:27 51°13.368 2°51.106 232.9 7.1 235 10
2008-08-18 07:53:32 51°13.362 2°51.092 233.5 7.3 236 10
2008-08-18 07:53:37 51°13.357 2°51.079 234.5 7.5 236 10
2008-08-18 07:53:42 51°13.351 2°51.064 235.7 7.6 238 10
2008-08-18 07:53:47 51°13.345 2°51.05 236.5 7.8 237 10
2008-08-18 07:53:52 51°13.339 2°51.034 236.7 8.5 238 10
2008-08-18 07:53:57 51°13.332 2°51.018 236.5 9.2 237 10
2008-08-18 07:54:02 51°13.325 2°51 235.8 9.7 237 10
2008-08-18 07:54:07 51°13.317 2°50.982 235.1 10 236 10
2008-08-18 07:54:12 51°13.309 2°50.962 234.4 10.5 236 10
2008-08-18 07:54:17 51°13.3 2°50.943 233.9 10.8 235 9.9
2008-08-18 07:54:22 51°13.291 2°50.923 233.7 11.1 235 10
2008-08-18 07:54:27 51°13.283 2°50.902 233.7 11.3 235 10
2008-08-18 07:54:32 51°13.274 2°50.88 234.1 11.5 237 10
2008-08-18 07:54:37 51°13.265 2°50.859 234.7 11.8 237 9.9
2008-08-18 07:54:42 51°13.256 2°50.837 235.3 11.9 237 10
2008-08-18 07:54:47 51°13.247 2°50.815 235.7 12.1 237 10
2008-08-18 07:54:52 51°13.237 2°50.792 235.9 12.3 237 10
2008-08-18 07:54:57 51°13.228 2°50.769 236.1 12.5 237 10
2008-08-18 07:55:02 51°13.218 2°50.746 235.9 12.7 237 10
2008-08-18 07:55:07 51°13.209 2°50.722 235.8 12.8 237 9.9
2008-08-18 07:55:12 51°13.199 2°50.698 235.8 12.9 237 9.9
2008-08-18 07:55:17 51°13.189 2°50.674 236 13 237 10
2008-08-18 07:55:22 51°13.179 2°50.65 236 13.1 237 10
2008-08-18 07:55:27 51°13.17 2°50.626 235.8 13.1 237 10
2008-08-18 07:55:32 51°13.159 2°50.601 235.6 13.1 237 10
2008-08-18 07:55:37 51°13.149 2°50.577 235.6 13.1 237 9.9
2008-08-18 07:55:42 51°13.14 2°50.552 235.8 13.2 237 10
2008-08-18 07:55:47 51°13.13 2°50.527 235.7 13.2 237 10
2008-08-18 07:55:52 51°13.12 2°50.504 235.4 13.2 236 10
2008-08-18 07:55:57 51°13.11 2°50.479 235.1 13.2 237 10
2008-08-18 07:56:02 51°13.1 2°50.455 235.6 13.2 236 10
2008-08-18 07:56:07 51°13.09 2°50.43 235.6 13.2 237 10
2008-08-18 07:56:12 51°13.079 2°50.406 235.6 13.2 237 10
2008-08-18 07:56:17 51°13.069 2°50.382 236 13.2 237 10
2008-08-18 07:56:22 51°13.059 2°50.357 236.1 13.3 237 10.1
2008-08-18 07:56:27 51°13.049 2°50.333 236.1 13.3 237 10
2008-08-18 07:56:32 51°13.039 2°50.308 236.1 13.3 237 10
2008-08-18 07:56:37 51°13.029 2°50.283 236.2 13.3 237 10.1
2008-08-18 07:56:42 51°13.019 2°50.259 236 13.3 237 10.1
2008-08-18 07:56:47 51°13.009 2°50.234 235.8 13.3 236 10
2008-08-18 07:56:52 51°12.999 2°50.21 235.7 13.3 237 10
2008-08-18 07:56:57 51°12.988 2°50.185 235.8 13.3 237 10.1
2008-08-18 07:57:02 51°12.978 2°50.16 235.5 13.3 237 10.1
2008-08-18 07:57:07 51°12.968 2°50.136 235.5 13.3 237 10.1
2008-08-18 07:57:12 51°12.958 2°50.111 235.7 13.3 237 10.1
2008-08-18 07:57:17 51°12.948 2°50.086 235.7 13.3 237 10.1
2008-08-18 07:57:22 51°12.938 2°50.061 235.8 13.3 237 10.1
2008-08-18 07:57:27 51°12.928 2°50.037 236 13.3 237 10.1
2008-08-18 07:57:32 51°12.918 2°50.012 236 13.3 237 10.1
2008-08-18 07:57:37 51°12.908 2°49.988 236 13.3 237 10.1
2008-08-18 07:57:42 51°12.898 2°49.963 235.9 13.3 237 10.1
2008-08-18 07:57:47 51°12.887 2°49.939 236.1 13.3 237 10.2
2008-08-18 07:57:52 51°12.877 2°49.914 236 13.3 237 10.1
2008-08-18 07:57:57 51°12.867 2°49.89 235.8 13.3 237 10.1
2008-08-18 07:58:02 51°12.857 2°49.865 235.5 13.3 236 10.2
2008-08-18 07:58:07 51°12.847 2°49.841 235.2 13.3 236 10.1
2008-08-18 07:58:12 51°12.837 2°49.816 234.9 13.3 237 10.2
2008-08-18 07:58:17 51°12.827 2°49.792 235.2 13.2 237 10.2
2008-08-18 07:58:22 51°12.817 2°49.768 235.6 13.2 237 10.2
2008-08-18 07:58:27 51°12.807 2°49.743 235.8 13.3 237 10.2
2008-08-18 07:58:32 51°12.797 2°49.719 236 13.2 238 10.2
2008-08-18 07:58:37 51°12.787 2°49.694 236.5 13.2 237 10.2
2008-08-18 07:58:42 51°12.778 2°49.669 236.4 13.2 238 10.2
2008-08-18 07:58:46 51°12.77 2°49.649 236.5 13.2 238 10.2
2008-08-18 07:58:52 51°12.758 2°49.62 236.6 13.3 238 10.2
2008-08-18 07:58:57 51°12.748 2°49.595 236.6 13.2 238 10.1
2008-08-18 07:59:02 51°12.738 2°49.57 236.7 13.2 238 10.2
2008-08-18 07:59:07 51°12.729 2°49.545 237 13.2 238 10.2
2008-08-18 07:59:12 51°12.719 2°49.521 236.9 13.3 238 10.2
2008-08-18 07:59:17 51°12.709 2°49.496 237.2 13.3 239 10.3
2008-08-18 07:59:22 51°12.7 2°49.471 237.5 13.3 238 10.2
2008-08-18 07:59:27 51°12.691 2°49.446 237.5 13.3 240 10.2
2008-08-18 07:59:32 51°12.682 2°49.42 238.7 13.3 240 10.2
2008-08-18 07:59:37 51°12.672 2°49.395 239.1 13.2 241 10.2
2008-08-18 07:59:42 51°12.664 2°49.369 240.1 13.2 242 10.2
2008-08-18 07:59:47 51°12.655 2°49.344 240.3 13.3 241 10.3
2008-08-18 07:59:52 51°12.646 2°49.318 240.6 13.3 242 10.3
2008-08-18 07:59:57 51°12.638 2°49.292 240.9 13.3 242 10.3
2008-08-18 08:00:02 51°12.629 2°49.266 241 13.3 242 10.3
2008-08-18 08:00:07 51°12.62 2°49.24 241.2 13.3 242 10.3
2008-08-18 08:00:12 51°12.612 2°49.215 241.2 13.3 242 10.4
2008-08-18 08:00:17 51°12.603 2°49.189 241.4 13.3 242 10.4
2008-08-18 08:00:22 51°12.594 2°49.163 241.1 13.3 242 10.5
2008-08-18 08:00:27 51°12.586 2°49.137 240.9 13.3 241 10.4
2008-08-18 08:00:32 51°12.577 2°49.111 240.9 13.3 242 10.4
2008-08-18 08:00:37 51°12.568 2°49.086 241.5 13.3 242 10.5
2008-08-18 08:00:42 51°12.56 2°49.06 241.5 13.3 242 10.4
2008-08-18 08:00:47 51°12.551 2°49.034 241.3 13.3 242 10.4
2008-08-18 08:00:52 51°12.543 2°49.008 241.4 13.3 242 10.4
2008-08-18 08:00:57 51°12.534 2°48.982 241.5 13.3 242 10.4
2008-08-18 08:01:02 51°12.525 2°48.956 241.5 13.3 242 10.4
2008-08-18 08:01:07 51°12.517 2°48.931 241.5 13.3 242 10.4
2008-08-18 08:01:12 51°12.508 2°48.905 241.6 13.3 242 10.4
2008-08-18 08:01:17 51°12.5 2°48.879 241.8 13.2 242 10.3
2008-08-18 08:01:22 51°12.491 2°48.853 241.5 13.2 242 10.5
2008-08-18 08:01:27 51°12.482 2°48.827 241.6 13.2 243 10.5
2008-08-18 08:01:32 51°12.474 2°48.801 242.1 13.2 243 10.4
2008-08-18 08:01:37 51°12.465 2°48.775 242.3 13.2 242 10.4
2008-08-18 08:01:42 51°12.457 2°48.749 242.2 13.2 243 10.4
2008-08-18 08:01:47 51°12.449 2°48.723 242.4 13.2 242 10.5
2008-08-18 08:01:52 51°12.44 2°48.697 241.9 13.2 242 10.5
2008-08-18 08:01:57 51°12.432 2°48.671 241.7 13.2 242 10.5
2008-08-18 08:02:02 51°12.423 2°48.646 241.2 13.3 242 10.5
2008-08-18 08:02:07 51°12.414 2°48.62 241.4 13.3 243 10.4
2008-08-18 08:02:12 51°12.406 2°48.594 242.4 13.3 243 10.5
2008-08-18 08:02:17 51°12.398 2°48.567 243.5 13.2 244 10.5
2008-08-18 08:02:22 51°12.39 2°48.541 243.8 13.3 245 10.5
2008-08-18 08:02:27 51°12.383 2°48.514 244.5 13.3 246 10.6
2008-08-18 08:02:32 51°12.376 2°48.487 245.7 13.3 246 10.6
2008-08-18 08:02:37 51°12.368 2°48.46 246.5 13.3 247 10.6
2008-08-18 08:02:42 51°12.361 2°48.433 247.2 13.3 248 10.6
2008-08-18 08:02:47 51°12.354 2°48.406 247.8 13.3 248 10.7
2008-08-18 08:02:52 51°12.347 2°48.378 248.1 13.3 248 10.7
2008-08-18 08:02:57 51°12.341 2°48.351 248.1 13.3 248 10.7
2008-08-18 08:03:02 51°12.334 2°48.324 248.1 13.3 248 10.7
2008-08-18 08:03:07 51°12.326 2°48.297 247.7 13.3 247 10.8
2008-08-18 08:03:12 51°12.319 2°48.27 247.6 13.3 247 10.9
2008-08-18 08:03:17 51°12.312 2°48.243 247.4 13.3 247 10.7
2008-08-18 08:03:22 51°12.305 2°48.216 247.3 13.3 247 10.7
2008-08-18 08:03:27 51°12.298 2°48.189 247.3 13.3 247 10.8
2008-08-18 08:03:32 51°12.291 2°48.162 247.3 13.3 247 10.8
2008-08-18 08:03:37 51°12.283 2°48.135 247.3 13.3 247 10.9
2008-08-18 08:03:42 51°12.276 2°48.107 247.4 13.3 247 10.9
2008-08-18 08:03:47 51°12.269 2°48.08 247.5 13.3 248 10.9
2008-08-18 08:03:52 51°12.262 2°48.053 247.3 13.3 247 10.9
2008-08-18 08:03:57 51°12.255 2°48.026 247.2 13.3 247 10.9
2008-08-18 08:04:02 51°12.247 2°47.999 246.9 13.3 247 11.1
2008-08-18 08:04:07 51°12.24 2°47.973 247 13.3 247 10.9
2008-08-18 08:04:12 51°12.232 2°47.946 246.6 13.3 246 11
2008-08-18 08:04:17 51°12.225 2°47.919 246.3 13.2 246 11
2008-08-18 08:04:22 51°12.218 2°47.892 246.3 13.2 247 11
2008-08-18 08:04:27 51°12.21 2°47.865 246.4 13.3 247 11.2
2008-08-18 08:04:32 51°12.203 2°47.838 246.5 13.2 246 11
2008-08-18 08:04:37 51°12.195 2°47.811 246.3 13.3 247 11
2008-08-18 08:04:42 51°12.188 2°47.785 246.7 13.3 247 10.9
2008-08-18 08:04:47 51°12.181 2°47.758 246.8 13.3 247 11.1
2008-08-18 08:04:52 51°12.174 2°47.731 246.8 13.3 247 11.1
2008-08-18 08:04:57 51°12.166 2°47.704 246.6 13.3 246 11
2008-08-18 08:05:02 51°12.159 2°47.677 246.2 13.3 246 11.1
2008-08-18 08:05:07 51°12.151 2°47.65 246 13.3 246 11.1
2008-08-18 08:05:12 51°12.144 2°47.624 246 13.3 246 11
2008-08-18 08:05:17 51°12.136 2°47.597 246 13.3 246 11.1
2008-08-18 08:05:22 51°12.129 2°47.57 246 13.3 247 11.2
2008-08-18 08:05:27 51°12.121 2°47.543 246.1 13.3 246 11.1
2008-08-18 08:05:32 51°12.114 2°47.516 246.1 13.3 247 11.2
2008-08-18 08:05:37 51°12.106 2°47.489 246.5 13.3 246 11.2
2008-08-18 08:05:42 51°12.099 2°47.462 246.5 13.3 247 11.2
2008-08-18 08:05:47 51°12.092 2°47.435 246.5 13.3 246 11.2
2008-08-18 08:05:52 51°12.084 2°47.409 246.5 13.3 246 11.2
2008-08-18 08:05:57 51°12.077 2°47.382 246 13.3 247 11.2
2008-08-18 08:06:02 51°12.069 2°47.355 246.2 13.3 246 11.2
2008-08-18 08:06:07 51°12.062 2°47.328 246.2 13.3 246 11.2
2008-08-18 08:06:12 51°12.054 2°47.301 246 13.3 246 11.3
2008-08-18 08:06:17 51°12.047 2°47.274 246 13.3 246 11.2
2008-08-18 08:06:22 51°12.039 2°47.248 245.9 13.3 246 11.3
2008-08-18 08:06:27 51°12.032 2°47.221 245.8 13.3 246 11.3
2008-08-18 08:06:32 51°12.024 2°47.194 246 13.3 246 11.2
2008-08-18 08:06:37 51°12.017 2°47.167 246 13.3 246 11.3
2008-08-18 08:06:42 51°12.009 2°47.14 245.9 13.3 245 11.3
2008-08-18 08:06:47 51°12.002 2°47.114 244.5 13.3 245 11.2
2008-08-18 08:06:52 51°11.994 2°47.088 244.1 13.3 244 11.2
2008-08-18 08:06:57 51°11.986 2°47.061 243.6 13.3 244 11.3
2008-08-18 08:07:02 51°11.978 2°47.035 243.3 13.2 243 11.3
2008-08-18 08:07:07 51°11.969 2°47.009 242.7 13.2 244 11.3
2008-08-18 08:07:12 51°11.961 2°46.983 242.8 13.3 244 11.3
2008-08-18 08:07:17 51°11.954 2°46.956 242.8 13.2 245 11.3
2008-08-18 08:07:22 51°11.946 2°46.93 243.5 13.2 246 11.4
2008-08-18 08:07:27 51°11.94 2°46.902 246.7 13.2 250 11.3
2008-08-18 08:07:32 51°11.933 2°46.875 248.3 13.2 249 11.4
2008-08-18 08:07:37 51°11.927 2°46.848 249.7 13.2 252 11.4
2008-08-18 08:07:42 51°11.922 2°46.82 251.6 13.2 253 11.4
2008-08-18 08:07:47 51°11.917 2°46.792 252.6 13.2 253 11.4
2008-08-18 08:07:52 51°11.912 2°46.764 253.9 13.2 254 11.4
2008-08-18 08:07:57 51°11.907 2°46.736 254.9 13.2 256 11.3
2008-08-18 08:08:02 51°11.903 2°46.707 256.5 13.2 256 11.4
2008-08-18 08:08:07 51°11.899 2°46.679 257.1 13.2 257 11.4
2008-08-18 08:08:12 51°11.895 2°46.65 257.9 13.3 258 11.5
2008-08-18 08:08:17 51°11.891 2°46.621 258.3 13.3 258 11.5
2008-08-18 08:08:22 51°11.887 2°46.593 258.8 13.3 258 11.5
2008-08-18 08:08:27 51°11.883 2°46.564 258.9 13.3 258 11.5
2008-08-18 08:08:32 51°11.88 2°46.535 258.9 13.3 258 11.6
2008-08-18 08:08:37 51°11.876 2°46.506 258.9 13.3 258 11.6
2008-08-18 08:08:42 51°11.872 2°46.478 258.5 13.3 258 11.5
2008-08-18 08:08:47 51°11.868 2°46.449 258.3 13.3 257 11.6
2008-08-18 08:08:52 51°11.864 2°46.42 258.3 13.3 258 11.5
2008-08-18 08:08:57 51°11.86 2°46.392 258.1 13.3 257 11.6
2008-08-18 08:09:02 51°11.856 2°46.363 257.8 13.3 257 11.7
2008-08-18 08:09:07 51°11.852 2°46.335 258 13.3 257 11.6
2008-08-18 08:09:12 51°11.847 2°46.306 258 13.3 257 11.7
2008-08-18 08:09:17 51°11.843 2°46.277 257.3 13.3 257 11.7
2008-08-18 08:09:22 51°11.839 2°46.249 257.6 13.3 257 11.7
2008-08-18 08:09:27 51°11.835 2°46.22 257.9 13.3 257 11.7
2008-08-18 08:09:32 51°11.831 2°46.191 258 13.3 257 11.7
2008-08-18 08:09:37 51°11.827 2°46.163 258 13.3 257 11.6
2008-08-18 08:09:42 51°11.823 2°46.134 257.7 13.3 256 11.6
2008-08-18 08:09:47 51°11.819 2°46.106 257.6 13.3 257 11.7
2008-08-18 08:09:52 51°11.814 2°46.077 257.6 13.3 256 11.7
2008-08-18 08:09:57 51°11.81 2°46.048 257.5 13.3 257 11.7
2008-08-18 08:10:02 51°11.806 2°46.02 257.6 13.3 257 11.7
2008-08-18 08:10:07 51°11.802 2°45.991 257.5 13.3 257 11.7
2008-08-18 08:10:12 51°11.797 2°45.962 257.2 13.4 257 11.6
2008-08-18 08:10:17 51°11.794 2°45.933 257.8 13.4 258 11.7
2008-08-18 08:10:22 51°11.79 2°45.904 258.8 13.3 258 11.7
2008-08-18 08:10:27 51°11.786 2°45.876 258.5 13.3 257 11.7
2008-08-18 08:10:32 51°11.781 2°45.847 258 13.4 257 11.7
2008-08-18 08:10:37 51°11.777 2°45.818 257.5 13.4 257 11.7
2008-08-18 08:10:42 51°11.773 2°45.79 257.7 13.4 257 11.6
2008-08-18 08:10:47 51°11.769 2°45.761 257.7 13.4 257 11.7
2008-08-18 08:10:52 51°11.764 2°45.732 257.6 13.4 257 11.7
2008-08-18 08:10:57 51°11.76 2°45.704 257.2 13.4 257 11.7
2008-08-18 08:11:02 51°11.756 2°45.675 257.3 13.3 258 11.7
2008-08-18 08:11:07 51°11.753 2°45.646 258.9 13.3 260 11.7
2008-08-18 08:11:12 51°11.749 2°45.617 260.3 13.3 259 11.7
2008-08-18 08:11:17 51°11.746 2°45.588 260.9 13.3 261 11.7
2008-08-18 08:11:22 51°11.744 2°45.559 262.3 13.3 262 11.7
2008-08-18 08:11:27 51°11.741 2°45.53 263.1 13.3 263 11.7
2008-08-18 08:11:32 51°11.739 2°45.501 263.8 13.3 263 11.7
2008-08-18 08:11:37 51°11.737 2°45.471 264.1 13.3 263 11.7
2008-08-18 08:11:42 51°11.734 2°45.442 264.2 13.3 263 11.7
2008-08-18 08:11:47 51°11.732 2°45.413 264.2 13.3 263 11.7
2008-08-18 08:11:52 51°11.73 2°45.384 264.5 13.3 263 11.7
2008-08-18 08:11:57 51°11.728 2°45.355 264.3 13.2 263 11.7
2008-08-18 08:12:02 51°11.726 2°45.326 264.2 13.2 263 11.7
2008-08-18 08:12:07 51°11.724 2°45.297 264.4 13.2 263 11.7
2008-08-18 08:12:12 51°11.722 2°45.268 264.5 13.2 263 11.7
2008-08-18 08:12:17 51°11.719 2°45.239 264.5 13.2 263 11.7
2008-08-18 08:12:22 51°11.717 2°45.21 264.3 13.2 263 11.7
2008-08-18 08:12:27 51°11.715 2°45.182 264.4 13.2 263 11.6
2008-08-18 08:12:32 51°11.713 2°45.153 264.7 13.1 264 11.6
2008-08-18 08:12:37 51°11.711 2°45.124 264.6 13.1 263 11.7
2008-08-18 08:12:42 51°11.709 2°45.095 264.4 13.1 263 11.6
2008-08-18 08:12:47 51°11.707 2°45.066 264.5 13.1 263 11.6
2008-08-18 08:12:52 51°11.704 2°45.038 264.5 13.1 263 11.6
2008-08-18 08:12:57 51°11.703 2°45.009 264.4 13.1 264 11.6
2008-08-18 08:13:02 51°11.7 2°44.98 264.6 13.1 264 11.6
2008-08-18 08:13:07 51°11.699 2°44.951 264.9 13.1 264 11.6
2008-08-18 08:13:12 51°11.697 2°44.923 265.1 13.1 263 11.5
2008-08-18 08:13:17 51°11.695 2°44.894 264.6 13 264 11.5
2008-08-18 08:13:22 51°11.692 2°44.865 264.3 13 263 11.5
2008-08-18 08:13:27 51°11.691 2°44.837 264.2 13 264 11.5
2008-08-18 08:13:32 51°11.689 2°44.808 264.8 13 264 11.5
2008-08-18 08:13:37 51°11.687 2°44.78 265 13 264 11.5
2008-08-18 08:13:42 51°11.685 2°44.751 265.4 13 264 11.4
2008-08-18 08:13:47 51°11.683 2°44.722 265.2 13 264 11.4
2008-08-18 08:13:52 51°11.682 2°44.694 265 13 264 11.4
2008-08-18 08:13:57 51°11.68 2°44.665 265 13 264 11.3
2008-08-18 08:14:02 51°11.678 2°44.637 265 13 264 11.3
2008-08-18 08:14:07 51°11.676 2°44.608 265.2 12.9 264 11.3
2008-08-18 08:14:12 51°11.674 2°44.58 265.2 12.9 264 11.3
2008-08-18 08:14:17 51°11.673 2°44.552 265.2 12.9 264 11.2
2008-08-18 08:14:22 51°11.671 2°44.523 264.8 12.9 264 11.2
2008-08-18 08:14:27 51°11.669 2°44.495 264.8 12.9 264 11.1
2008-08-18 08:14:32 51°11.667 2°44.466 264.8 12.9 265 11.2
2008-08-18 08:14:37 51°11.665 2°44.438 265.2 12.9 264 11.2
2008-08-18 08:14:42 51°11.664 2°44.41 265.2 12.9 264 11.1
2008-08-18 08:14:47 51°11.662 2°44.382 265 12.9 265 11.1
2008-08-18 08:14:52 51°11.66 2°44.353 265.4 12.9 264 11
2008-08-18 08:14:57 51°11.658 2°44.325 265.2 12.8 264 11
2008-08-18 08:15:02 51°11.656 2°44.297 264.9 12.8 264 11
2008-08-18 08:15:07 51°11.655 2°44.269 264.8 12.8 264 10.9
2008-08-18 08:15:12 51°11.653 2°44.241 264.9 12.8 264 10.9
2008-08-18 08:15:17 51°11.651 2°44.212 265 12.8 264 10.9
2008-08-18 08:15:22 51°11.649 2°44.184 264.8 12.8 264 10.8
2008-08-18 08:15:27 51°11.648 2°44.156 264.8 12.8 265 10.8
2008-08-18 08:15:32 51°11.646 2°44.128 265.2 12.8 265 10.8
2008-08-18 08:15:37 51°11.644 2°44.1 265.2 12.8 264 10.7
2008-08-18 08:15:42 51°11.643 2°44.072 265.5 12.8 265 10.7
2008-08-18 08:15:47 51°11.64 2°44.044 264.8 12.8 262 10.7
2008-08-18 08:15:52 51°11.638 2°44.016 263.6 12.8 263 10.7
2008-08-18 08:15:57 51°11.636 2°43.988 263.4 12.8 261 10.6
2008-08-18 08:16:02 51°11.633 2°43.96 262.5 12.8 262 10.5
2008-08-18 08:16:07 51°11.63 2°43.932 262.2 12.8 261 10.6
2008-08-18 08:16:12 51°11.627 2°43.904 261.8 12.8 261 10.6
2008-08-18 08:16:17 51°11.625 2°43.877 261.6 12.8 261 10.6
2008-08-18 08:16:22 51°11.622 2°43.849 261.5 12.8 261 10.5
2008-08-18 08:16:27 51°11.619 2°43.821 261.4 12.8 261 10.5
2008-08-18 08:16:32 51°11.616 2°43.793 261.5 12.8 261 10.5
2008-08-18 08:16:37 51°11.614 2°43.765 261.8 12.8 261 10.4
2008-08-18 08:16:42 51°11.611 2°43.737 261.8 12.8 262 10.4
2008-08-18 08:16:47 51°11.608 2°43.71 262 12.8 261 10.3
2008-08-18 08:16:52 51°11.606 2°43.682 262 12.8 261 10.3
2008-08-18 08:16:57 51°11.603 2°43.654 262.1 12.8 261 10.3
2008-08-18 08:17:02 51°11.6 2°43.626 261.1 12.8 259 10.3
2008-08-18 08:17:07 51°11.596 2°43.599 259.8 12.7 259 10.2
2008-08-18 08:17:12 51°11.592 2°43.571 259.1 12.8 258 10.3
2008-08-18 08:17:17 51°11.589 2°43.544 258.3 12.8 258 10.2
2008-08-18 08:17:22 51°11.585 2°43.516 258.3 12.8 258 10.2
2008-08-18 08:17:27 51°11.581 2°43.488 258.4 12.8 259 10.2
2008-08-18 08:17:32 51°11.578 2°43.46 259.1 12.8 259 10.2
2008-08-18 08:17:37 51°11.574 2°43.433 259.3 12.8 259 10
2008-08-18 08:17:42 51°11.571 2°43.405 259.7 12.8 259 10.1
2008-08-18 08:17:47 51°11.568 2°43.377 260.1 12.8 260 10
2008-08-18 08:17:52 51°11.565 2°43.349 260.2 12.8 259 10
2008-08-18 08:17:57 51°11.562 2°43.321 259.7 12.8 258 9.9
2008-08-18 08:18:02 51°11.558 2°43.294 259.1 12.8 258 9.8
2008-08-18 08:18:07 51°11.554 2°43.266 258.4 12.8 257 9.8
2008-08-18 08:18:12 51°11.55 2°43.239 257.9 12.8 257 9.7
2008-08-18 08:18:17 51°11.546 2°43.211 257.3 12.8 256 9.7
2008-08-18 08:18:22 51°11.542 2°43.183 257.1 12.8 257 9.8
2008-08-18 08:18:27 51°11.538 2°43.156 257.1 12.8 257 9.9
2008-08-18 08:18:32 51°11.533 2°43.128 257.1 12.8 257 9.9
2008-08-18 08:18:37 51°11.529 2°43.101 257.5 12.9 257 9.9
2008-08-18 08:18:42 51°11.525 2°43.073 257.3 12.9 256 10
2008-08-18 08:18:47 51°11.521 2°43.046 256.9 12.9 256 10
2008-08-18 08:18:52 51°11.516 2°43.018 256.7 12.9 256 9.9
2008-08-18 08:18:57 51°11.512 2°42.99 256.7 12.9 256 9.9
2008-08-18 08:19:02 51°11.508 2°42.963 256.8 12.8 256 9.9
2008-08-18 08:19:07 51°11.503 2°42.935 256.8 12.8 256 10
2008-08-18 08:19:12 51°11.499 2°42.908 256.8 12.9 256 9.9
2008-08-18 08:19:17 51°11.495 2°42.88 256.8 12.9 256 10
2008-08-18 08:19:22 51°11.491 2°42.853 256.8 12.9 256 9.9
2008-08-18 08:19:27 51°11.486 2°42.825 256.7 12.8 256 9.8
2008-08-18 08:19:32 51°11.482 2°42.798 256.6 12.9 256 9.9
2008-08-18 08:19:37 51°11.478 2°42.77 256.5 12.8 256 9.9
2008-08-18 08:19:42 51°11.474 2°42.743 256.6 12.9 256 9.9
2008-08-18 08:19:47 51°11.469 2°42.715 256.7 12.8 256 9.9
2008-08-18 08:19:52 51°11.465 2°42.688 256.8 12.8 255 9.9
2008-08-18 08:19:57 51°11.46 2°42.661 254.9 12.8 251 9.9
2008-08-18 08:20:02 51°11.454 2°42.634 253 12.7 252 9.9
2008-08-18 08:20:07 51°11.448 2°42.609 251.5 12.3 250 10
2008-08-18 08:20:12 51°11.443 2°42.584 250.3 11.9 249 10.2
2008-08-18 08:20:17 51°11.436 2°42.56 249.2 11.5 246 10.1
2008-08-18 08:20:22 51°11.429 2°42.538 246 11 241 10.1
2008-08-18 08:20:27 51°11.42 2°42.519 239.7 10.7 234 10.1
2008-08-18 08:20:32 51°11.411 2°42.502 232.6 10.2 229 10.2
2008-08-18 08:20:37 51°11.401 2°42.486 226 10 223 10.3
2008-08-18 08:20:42 51°11.391 2°42.472 220.4 9.9 221 10.3
2008-08-18 08:20:47 51°11.381 2°42.458 217.6 9.4 220 10.4
2008-08-18 08:20:52 51°11.371 2°42.446 216.2 9 220 10.5
2008-08-18 08:20:57 51°11.362 2°42.433 215.8 8.6 220 10.5
2008-08-18 08:21:02 51°11.353 2°42.421 216.7 8.3 221 10.6
2008-08-18 08:21:07 51°11.344 2°42.41 217.5 8.1 221 10.6
2008-08-18 08:21:12 51°11.336 2°42.398 217.7 7.9 221 10.5
2008-08-18 08:21:17 51°11.328 2°42.387 217.7 7.6 221 10.6
2008-08-18 08:21:22 51°11.32 2°42.376 217.6 7.5 221 10.6
2008-08-18 08:21:27 51°11.313 2°42.365 217.4 7.3 222 10.6
2008-08-18 08:21:32 51°11.305 2°42.354 217.3 7.2 222 10.6
2008-08-18 08:21:37 51°11.298 2°42.344 217.3 7 222 10.7
2008-08-18 08:21:42 51°11.291 2°42.334 217.3 6.9 222 10.7
2008-08-18 08:21:47 51°11.283 2°42.324 217.1 6.8 222 10.7
2008-08-18 08:21:52 51°11.276 2°42.314 216.9 6.7 222 10.7
2008-08-18 08:21:57 51°11.269 2°42.304 216.9 6.7 222 10.8
2008-08-18 08:22:02 51°11.262 2°42.294 216.9 6.6 222 10.9
2008-08-18 08:22:07 51°11.256 2°42.285 216.9 6.5 222 10.8
2008-08-18 08:22:12 51°11.249 2°42.275 216.8 6.5 222 10.8
2008-08-18 08:22:17 51°11.242 2°42.266 216.5 6.4 221 10.9
2008-08-18 08:22:22 51°11.235 2°42.256 216.1 6.4 221 10.9
2008-08-18 08:22:27 51°11.229 2°42.247 215.6 6.3 221 10.9
2008-08-18 08:22:32 51°11.222 2°42.238 215.1 6.3 220 10.9
2008-08-18 08:22:37 51°11.215 2°42.229 214.6 6.2 219 10.9
2008-08-18 08:22:42 51°11.208 2°42.221 213.7 6.2 219 10.8
2008-08-18 08:22:47 51°11.202 2°42.212 212.9 6.2 218 10.9
2008-08-18 08:22:52 51°11.195 2°42.204 212 6.1 218 10.9
2008-08-18 08:22:57 51°11.188 2°42.196 211.3 6.1 217 10.9
2008-08-18 08:23:02 51°11.181 2°42.188 210.5 6.1 217 10.9
2008-08-18 08:23:07 51°11.174 2°42.18 209.7 6 216 10.9
2008-08-18 08:23:12 51°11.168 2°42.173 208.9 5.7 216 10.9
2008-08-18 08:23:17 51°11.162 2°42.166 208.5 5.5 215 11
2008-08-18 08:23:22 51°11.155 2°42.159 207.5 5.4 215 11
2008-08-18 08:23:27 51°11.149 2°42.152 206.8 5.3 214 11
2008-08-18 08:23:32 51°11.143 2°42.146 206 5 214 11.1
2008-08-18 08:23:37 51°11.138 2°42.14 205.3 4.8 214 11.1
2008-08-18 08:23:42 51°11.133 2°42.135 204.6 4.6 214 11.1
2008-08-18 08:23:47 51°11.128 2°42.129 203.9 4.4 214 11.1
2008-08-18 08:23:52 51°11.123 2°42.124 202.7 4.2 214 11.2
2008-08-18 08:23:57 51°11.118 2°42.119 202 3.9 214 11.2
2008-08-18 08:24:02 51°11.114 2°42.115 200.9 3.6 213 11.2
2008-08-18 08:24:07 51°11.11 2°42.111 199.2 3.3 213 11.2
2008-08-18 08:24:12 51°11.107 2°42.108 197.3 3.1 212 11.2
2008-08-18 08:24:17 51°11.104 2°42.104 194.9 2.6 214 11.2
2008-08-18 08:24:22 51°11.101 2°42.102 191.5 2.1 215 11.3
2008-08-18 08:24:27 51°11.1 2°42.099 187.9 1.8 219 11.3
2008-08-18 08:24:32 51°11.098 2°42.097 184.8 1.3 233 11.3
2008-08-18 08:24:37 51°11.098 2°42.095 182.6 1.1 247 11.3
2008-08-18 08:24:42 51°11.098 2°42.092 180.5 0.9 273 11.2
2008-08-18 08:24:47 51°11.098 2°42.09 179.2 1.1 291 11.2
2008-08-18 08:24:52 51°11.099 2°42.088 178.1 1.1 300 11.2
2008-08-18 08:24:57 51°11.1 2°42.086 177.1 1.2 302 -999
2008-08-18 08:25:02 51°11.101 2°42.084 176 1.1 302 4.9
2008-08-18 08:25:08 51°11.102 2°42.081 175 1.2 300 -999
2008-08-18 08:25:14 51°11.103 2°42.078 174.3 1.1 300 -999
2008-08-18 08:25:19 51°11.104 2°42.076 173.5 1.1 299 -999
2008-08-18 08:25:24 51°11.105 2°42.074 172.8 1.1 300 -999
2008-08-18 08:25:30 51°11.106 2°42.071 172.2 1.1 300 -999
2008-08-18 08:25:36 51°11.107 2°42.069 171.6 1.1 300 -999
2008-08-18 08:25:40 51°11.108 2°42.067 171.1 1.1 300 11.2
2008-08-18 08:25:45 51°11.108 2°42.065 170.5 1.2 300 11.4
2008-08-18 08:25:50 51°11.109 2°42.063 170 1.1 301 11.2
2008-08-18 08:25:55 51°11.11 2°42.06 169.5 1.2 300 11.2
2008-08-18 08:25:59 51°11.111 2°42.059 169.1 1.1 301 11.1
2008-08-18 08:26:04 51°11.112 2°42.056 168.4 1.2 300 11.1
2008-08-18 08:26:09 51°11.112 2°42.054 168 1.1 302 11.2
2008-08-18 08:26:14 51°11.113 2°42.052 167.4 1.2 301 11.2
2008-08-18 08:26:18 51°11.114 2°42.05 166.4 1.1 303 11.2
2008-08-18 08:26:23 51°11.115 2°42.048 165.7 1.2 302 11.2
2008-08-18 08:26:28 51°11.116 2°42.046 165 1.2 303 11.1
2008-08-18 08:26:33 51°11.117 2°42.044 164.1 1.2 304 11.1
2008-08-18 08:26:38 51°11.118 2°42.042 163.4 1.2 303 11.2
2008-08-18 08:26:42 51°11.118 2°42.04 162.5 1.2 304 11.2
2008-08-18 08:26:47 51°11.119 2°42.038 161.7 1.2 304 11.2
2008-08-18 08:26:52 51°11.12 2°42.036 160.3 1.2 304 11.2
2008-08-18 08:26:57 51°11.121 2°42.033 159.3 1.2 304 11.2
2008-08-18 08:27:02 51°11.122 2°42.031 158 1.2 305 11.1
2008-08-18 08:27:07 51°11.123 2°42.029 156.9 1.2 304 11.2
2008-08-18 08:27:12 51°11.124 2°42.026 155.6 1.2 303 11.1
2008-08-18 08:27:17 51°11.125 2°42.024 154.3 1.3 303 11.2
2008-08-18 08:27:22 51°11.126 2°42.022 152.7 1.3 302 11.1
2008-08-18 08:27:27 51°11.127 2°42.019 151.6 1.3 302 11.1
2008-08-18 08:27:32 51°11.128 2°42.017 150.2 1.3 301 11.1
2008-08-18 08:27:37 51°11.129 2°42.015 148.7 1.3 301 11.1
2008-08-18 08:27:42 51°11.13 2°42.012 147.2 1.3 300 11.1
2008-08-18 08:27:47 51°11.131 2°42.009 145.7 1.3 300 11.1
2008-08-18 08:27:52 51°11.132 2°42.007 143.9 1.3 299 11.2
2008-08-18 08:27:57 51°11.133 2°42.004 142.2 1.3 298 11.1
2008-08-18 08:28:02 51°11.133 2°42.002 140.2 1.3 297 11.1
2008-08-18 08:28:07 51°11.134 2°41.999 137.9 1.3 296 11.1
2008-08-18 08:28:12 51°11.135 2°41.997 136.5 1.4 295 11.1
2008-08-18 08:28:17 51°11.136 2°41.994 134.8 1.4 294 11.1
2008-08-18 08:28:22 51°11.137 2°41.991 132.4 1.4 292 11.1
2008-08-18 08:28:27 51°11.137 2°41.988 130.8 1.4 292 11
2008-08-18 08:28:32 51°11.138 2°41.985 129.1 1.3 291 11.1
2008-08-18 08:28:37 51°11.138 2°41.983 127.2 1.1 284 11
2008-08-18 08:28:42 51°11.138 2°41.982 125.4 0.5 269 11.1
2008-08-18 08:28:47 51°11.138 2°41.981 124.1 0.3 200 11
2008-08-18 08:28:52 51°11.137 2°41.982 123.7 0.8 152 11.1
2008-08-18 08:28:57 51°11.135 2°41.984 123.6 1.6 139 11
2008-08-18 08:29:02 51°11.133 2°41.988 123.6 2.6 137 11.1
2008-08-18 08:29:07 51°11.13 2°41.992 124.8 3.2 140 11
2008-08-18 08:29:12 51°11.125 2°41.997 129.8 3.6 147 11.2
2008-08-18 08:29:17 51°11.12 2°42 138 4.4 157 11.1
2008-08-18 08:29:22 51°11.113 2°42.004 148.8 5.1 165 11.2
2008-08-18 08:29:27 51°11.105 2°42.006 155.5 5.7 169 11.1
2008-08-18 08:29:32 51°11.097 2°42.009 159.9 6.2 169 11.2
2008-08-18 08:29:37 51°11.088 2°42.012 160.8 6.8 168 11.2
2008-08-18 08:29:42 51°11.078 2°42.015 160.5 7.3 167 11.3
2008-08-18 08:29:47 51°11.068 2°42.02 159.6 7.7 166 11.3
2008-08-18 08:29:52 51°11.057 2°42.024 158.8 8 166 11.3
2008-08-18 08:29:57 51°11.046 2°42.029 157.8 8.3 164 11.4
2008-08-18 08:30:02 51°11.035 2°42.034 156.4 8.5 163 11.4
2008-08-18 08:30:07 51°11.023 2°42.04 155.5 8.6 163 11.4
2008-08-18 08:30:12 51°11.012 2°42.046 154.7 8.9 162 11.4
2008-08-18 08:30:17 51°11 2°42.052 154.2 9 162 11.4
2008-08-18 08:30:22 51°10.988 2°42.058 153.8 9.1 161 11.5
2008-08-18 08:30:27 51°10.975 2°42.064 153.7 9.2 162 11.5
2008-08-18 08:30:32 51°10.963 2°42.071 154.2 9.3 162 11.6
2008-08-18 08:30:37 51°10.951 2°42.077 154.3 9.4 161 11.5
2008-08-18 08:30:42 51°10.939 2°42.085 153.1 9.4 159 11.6
2008-08-18 08:30:47 51°10.926 2°42.092 151.8 9.4 159 11.6
2008-08-18 08:30:52 51°10.914 2°42.1 151.3 9.5 159 11.6
2008-08-18 08:30:57 51°10.902 2°42.107 151.1 9.5 158 11.6
2008-08-18 08:31:02 51°10.89 2°42.115 150.6 9.5 158 11.5
2008-08-18 08:31:07 51°10.878 2°42.123 150.2 9.5 158 11.6
2008-08-18 08:31:12 51°10.866 2°42.131 150 9.5 157 11.5
2008-08-18 08:31:17 51°10.854 2°42.139 149.9 9.5 158 11.5
2008-08-18 08:31:22 51°10.841 2°42.147 149.9 9.5 158 11.4
2008-08-18 08:31:27 51°10.829 2°42.155 150.1 9.5 158 11.4
2008-08-18 08:31:32 51°10.817 2°42.163 150.3 9.5 158 11.3
2008-08-18 08:31:37 51°10.805 2°42.171 150.1 9.6 157 11.3
2008-08-18 08:31:42 51°10.793 2°42.179 149.5 9.6 157 11.3
2008-08-18 08:31:47 51°10.78 2°42.188 149.2 9.6 157 11.2
2008-08-18 08:31:52 51°10.768 2°42.196 149.2 9.6 156 11.1
2008-08-18 08:31:57 51°10.756 2°42.205 148.6 9.5 155 11.1
2008-08-18 08:32:02 51°10.744 2°42.214 147.8 9.5 155 11
2008-08-18 08:32:07 51°10.732 2°42.223 146.8 9.5 153 11
2008-08-18 08:32:12 51°10.721 2°42.233 145.7 9.5 153 10.8
2008-08-18 08:32:17 51°10.709 2°42.243 145 9.5 152 10.8
2008-08-18 08:32:22 51°10.697 2°42.252 144.8 9.5 152 10.8
2008-08-18 08:32:27 51°10.686 2°42.262 144.5 9.5 153 10.7
2008-08-18 08:32:32 51°10.674 2°42.271 145 9.5 153 10.6
2008-08-18 08:32:37 51°10.662 2°42.28 145.5 9.5 154 10.4
2008-08-18 08:32:42 51°10.65 2°42.29 146 9.5 154 10.4
2008-08-18 08:32:47 51°10.638 2°42.299 146.4 9.5 154 10.3
2008-08-18 08:32:52 51°10.626 2°42.308 146.4 9.5 154 10.3
2008-08-18 08:32:57 51°10.614 2°42.317 146.5 9.5 154 10.2
2008-08-18 08:33:02 51°10.603 2°42.326 146.6 9.5 154 10
2008-08-18 08:33:07 51°10.591 2°42.335 146.5 9.5 154 9.8
2008-08-18 08:33:12 51°10.579 2°42.345 146.5 9.5 154 9.8
2008-08-18 08:33:17 51°10.567 2°42.354 145.9 9.5 153 9.6
2008-08-18 08:33:22 51°10.555 2°42.364 145.8 9.5 153 9.5
2008-08-18 08:33:27 51°10.543 2°42.373 145.9 9.5 153 9.3
2008-08-18 08:33:32 51°10.532 2°42.383 145.9 9.5 154 9.4
2008-08-18 08:33:37 51°10.52 2°42.392 145.5 9.5 152 9.1
2008-08-18 08:33:42 51°10.508 2°42.402 144.6 9.5 151 9
2008-08-18 08:33:47 51°10.497 2°42.412 144.3 9.5 152 8.9
2008-08-18 08:33:52 51°10.485 2°42.422 144.3 9.5 152 8.7
2008-08-18 08:33:57 51°10.473 2°42.432 144.9 9.5 153 8.7
2008-08-18 08:34:02 51°10.462 2°42.441 145.2 9.2 152 8.5
2008-08-18 08:34:07 51°10.451 2°42.45 145.1 8.7 152 8.5
2008-08-18 08:34:12 51°10.441 2°42.459 144.4 8.4 152 8.4
2008-08-18 08:34:17 51°10.431 2°42.467 144.3 7.8 153 8.3
2008-08-18 08:34:22 51°10.422 2°42.475 144.2 7.4 152 8.3
2008-08-18 08:34:27 51°10.413 2°42.482 144.3 7 154 8.2
2008-08-18 08:34:32 51°10.405 2°42.488 144.8 6.6 154 8.2
2008-08-18 08:34:37 51°10.397 2°42.494 145.4 6.2 156 8.2
2008-08-18 08:34:42 51°10.39 2°42.499 146.3 5.9 156 8.2
2008-08-18 08:34:47 51°10.383 2°42.504 147.3 5.6 158 8.1
2008-08-18 08:34:52 51°10.376 2°42.508 148.5 5.3 159 8.1
2008-08-18 08:34:57 51°10.369 2°42.511 149.6 5.1 161 8.1
2008-08-18 08:35:02 51°10.363 2°42.515 150.6 4.8 161 8.1
2008-08-18 08:35:07 51°10.357 2°42.518 151.5 4.6 163 8
2008-08-18 08:35:12 51°10.351 2°42.521 151.8 4.3 162 8
2008-08-18 08:35:17 51°10.345 2°42.524 151.8 4.1 162 8
2008-08-18 08:35:22 51°10.34 2°42.526 150.9 3.9 162 8
2008-08-18 08:35:27 51°10.335 2°42.529 149.4 3.8 161 8
2008-08-18 08:35:32 51°10.331 2°42.532 147.8 3.6 160 7.9
2008-08-18 08:35:37 51°10.326 2°42.534 145.8 3.4 159 7.9
2008-08-18 08:35:42 51°10.322 2°42.537 143.8 3.2 157 7.9
2008-08-18 08:35:47 51°10.318 2°42.54 141.8 3 156 7.9
2008-08-18 08:35:52 51°10.315 2°42.543 139.8 3 154 7.8
2008-08-18 08:35:57 51°10.311 2°42.546 137.5 2.9 151 7.9
2008-08-18 08:36:02 51°10.308 2°42.549 134.8 2.9 146 7.9
2008-08-18 08:36:07 51°10.305 2°42.553 132 2.8 145 7.9
2008-08-18 08:36:12 51°10.302 2°42.557 129.4 2.8 143 7.8
2008-08-18 08:36:17 51°10.299 2°42.561 127 2.9 139 7.8
2008-08-18 08:36:22 51°10.296 2°42.565 124.7 2.9 136 7.9
2008-08-18 08:36:27 51°10.293 2°42.57 123 3 135 7.9
2008-08-18 08:36:32 51°10.29 2°42.574 121.8 3 133 7.8
2008-08-18 08:36:37 51°10.287 2°42.579 121.3 3.1 133 7.8
2008-08-18 08:36:42 51°10.284 2°42.585 121.1 3.1 133 7.8
2008-08-18 08:36:47 51°10.281 2°42.59 121.1 3.2 133 7.8
2008-08-18 08:36:52 51°10.278 2°42.595 121.8 3.3 134 7.8
2008-08-18 08:36:57 51°10.275 2°42.6 122.7 3.4 133 7.8
2008-08-18 08:37:02 51°10.271 2°42.606 124 3.6 135 7.8
2008-08-18 08:37:07 51°10.268 2°42.612 124.7 3.7 134 7.9
2008-08-18 08:37:12 51°10.264 2°42.618 124.9 3.8 134 7.8
2008-08-18 08:37:17 51°10.26 2°42.624 124.7 3.9 133 7.8
2008-08-18 08:37:22 51°10.257 2°42.63 123.9 4 133 7.8
2008-08-18 08:37:27 51°10.253 2°42.637 123.1 4.1 131 7.8
2008-08-18 08:37:32 51°10.249 2°42.644 122.1 4.2 131 7.8
2008-08-18 08:37:37 51°10.245 2°42.652 121.1 4.3 129 7.8
2008-08-18 08:37:42 51°10.242 2°42.659 120.1 4.4 129 7.8
2008-08-18 08:37:47 51°10.238 2°42.667 119.1 4.4 127 7.8
2008-08-18 08:37:52 51°10.234 2°42.675 118.5 4.5 127 7.8
2008-08-18 08:37:57 51°10.23 2°42.683 118.2 4.6 127 7.8
2008-08-18 08:38:02 51°10.226 2°42.691 118.3 4.7 127 7.8
2008-08-18 08:38:07 51°10.222 2°42.699 119 4.7 128 7.8
2008-08-18 08:38:12 51°10.218 2°42.707 120.4 4.8 129 7.8
2008-08-18 08:38:17 51°10.214 2°42.715 121.7 4.8 131 7.8
2008-08-18 08:38:22 51°10.209 2°42.723 122.6 4.6 132 7.8
2008-08-18 08:38:27 51°10.205 2°42.73 123.2 4.5 132 7.9
2008-08-18 08:38:32 51°10.201 2°42.737 123.5 4.4 132 7.9
2008-08-18 08:38:37 51°10.197 2°42.744 124 4.2 133 7.8
2008-08-18 08:38:42 51°10.193 2°42.75 124.4 4.1 135 7.9
2008-08-18 08:38:47 51°10.189 2°42.756 125 3.9 135 7.9
2008-08-18 08:38:52 51°10.186 2°42.762 125.6 3.8 136 7.9
2008-08-18 08:38:57 51°10.182 2°42.768 126.1 3.8 137 8
2008-08-18 08:39:02 51°10.178 2°42.774 126.8 3.6 137 8
2008-08-18 08:39:07 51°10.174 2°42.779 127.4 3.6 138 8
2008-08-18 08:39:12 51°10.171 2°42.784 127.8 3.5 138 8
2008-08-18 08:39:17 51°10.167 2°42.789 128.2 3.3 139 8
2008-08-18 08:39:22 51°10.164 2°42.793 128.5 3.2 140 8
2008-08-18 08:39:27 51°10.161 2°42.797 128.9 3 142 8
2008-08-18 08:39:32 51°10.158 2°42.801 129.4 2.7 143 8
2008-08-18 08:39:37 51°10.155 2°42.803 130.5 2.3 149 8
2008-08-18 08:39:42 51°10.153 2°42.806 132 1.9 151 8.1
2008-08-18 08:39:47 51°10.151 2°42.807 134.4 1.7 159 8.1
2008-08-18 08:39:52 51°10.149 2°42.808 137.8 1.4 165 8.1
2008-08-18 08:39:57 51°10.147 2°42.808 140.4 1.2 172 8.1
2008-08-18 08:40:02 51°10.146 2°42.808 142.1 0.9 177 8.1